Time;durP1;ratioP1;P1;durP2;ratioP2;P2;SDS_P1;SDS_P2;PMS_P1;PMS_P2;Temp;Humidity;BMP_temperature;BMP_pressure;BME280_temperature;BME280_humidity;BME280_pressure;Samples;Min_cycle;Max_cycle;Signal;HPM_P1;HPM_P2
2022/02/07 00:02:24;;;;;;;15.37;5.87;;;;;;;2.39;50.00;99909.34;126295;1099;104147;-79
2022/02/07 00:04:55;;;;;;;21.37;6.33;;;;;;;2.40;50.14;99900.78;126272;1099;104225;-78
2022/02/07 00:07:27;;;;;;;14.00;5.60;;;;;;;2.41;49.87;99892.19;126350;1099;102466;-78
2022/02/07 00:09:58;;;;;;;15.33;6.37;;;;;;;2.43;50.33;99890.61;126323;1099;104300;-79
2022/02/07 00:12:31;;;;;;;17.37;5.90;;;;;;;2.46;50.27;99883.02;126269;1099;104223;-79
2022/02/07 00:15:03;;;;;;;15.43;6.00;;;;;;;2.50;49.79;99879.78;126257;1099;104166;-79
2022/02/07 00:17:35;;;;;;;14.23;5.60;;;;;;;2.59;50.18;99875.95;126312;1099;104245;-79
2022/02/07 00:20:13;;;;;;;15.47;5.30;;;;;;;2.65;49.83;99871.09;126344;1099;104291;-78
2022/02/07 00:22:45;;;;;;;14.97;5.87;;;;;;;2.72;49.92;99870.66;126322;1099;104425;-78
2022/02/07 00:25:18;;;;;;;14.53;5.43;;;;;;;2.77;49.86;99869.20;125793;1099;103119;-78
2022/02/07 00:27:49;;;;;;;14.43;5.20;;;;;;;2.81;50.01;99859.92;126291;1099;104149;-79
2022/02/07 00:30:22;;;;;;;14.53;5.63;;;;;;;2.82;50.37;99852.23;125355;1099;104316;-79
2022/02/07 00:32:54;;;;;;;13.07;5.07;;;;;;;2.86;50.00;99840.34;125392;1099;104153;-79
2022/02/07 00:35:25;;;;;;;13.83;5.27;;;;;;;2.91;49.80;99825.05;126210;1099;104165;-79
2022/02/07 00:38:01;;;;;;;14.80;4.93;;;;;;;2.91;49.73;99823.33;126264;1099;104251;-78
2022/02/07 00:43:34;;;;;;;16.27;5.00;;;;;;;2.95;50.08;99816.64;126236;1099;104152;-79
2022/02/07 00:46:08;;;;;;;15.70;5.87;;;;;;;2.96;50.04;99814.14;125657;1099;104332;-78
2022/02/07 00:48:41;;;;;;;11.17;4.50;;;;;;;2.98;50.03;99803.85;126305;1099;104213;-78
2022/02/07 00:51:12;;;;;;;11.30;4.53;;;;;;;2.99;50.15;99806.53;126282;1098;104153;-79
2022/02/07 00:53:43;;;;;;;11.67;4.77;;;;;;;2.99;50.18;99805.61;126309;1099;104153;-79
2022/02/07 00:56:15;;;;;;;11.03;4.33;;;;;;;3.02;50.04;99798.01;126244;1099;104258;-78
2022/02/07 00:58:46;;;;;;;10.20;4.20;;;;;;;3.04;49.91;99799.89;126296;1099;104211;-78
2022/02/07 01:01:18;;;;;;;10.37;4.23;;;;;;;3.08;50.29;99792.28;126295;1099;104794;-78
2022/02/07 01:03:56;;;;;;;14.50;5.10;;;;;;;3.11;50.52;99780.36;125226;1102;104377;-78
2022/02/07 01:06:32;;;;;;;14.33;4.80;;;;;;;3.13;50.15;99783.03;125238;1101;104172;-78
2022/02/07 01:09:17;;;;;;;13.90;4.90;;;;;;;3.13;50.11;99773.58;125260;1101;104313;-78
2022/02/07 01:12:05;;;;;;;16.33;5.47;;;;;;;3.14;50.42;99767.56;125277;1102;104293;-79
2022/02/07 01:15:11;;;;;;;11.77;4.83;;;;;;;3.15;50.77;99748.63;125260;1102;104198;-79
2022/02/07 01:23:59;;;;;;;14.07;5.75;;;;;;;3.28;50.75;99733.71;125257;1102;105665;-77
2022/02/07 01:47:05;;;;;;;11.00;4.67;;;;;;;3.20;50.02;99723.81;125128;1102;104306;-78
2022/02/07 01:49:58;;;;;;;13.17;4.37;;;;;;;3.21;50.56;99720.42;125205;1102;104223;-78
2022/02/07 01:52:47;;;;;;;9.97;4.73;;;;;;;3.22;50.40;99705.75;125048;1102;104616;-78
2022/02/07 01:55:31;;;;;;;11.53;4.87;;;;;;;3.22;50.14;99698.85;125222;1102;109003;-79
2022/02/07 01:58:05;;;;;;;11.60;4.87;;;;;;;3.22;50.16;99693.66;125171;1102;104197;-78
2022/02/07 02:00:37;;;;;;;;;;;;;;;3.23;49.67;99679.02;125280;1102;104283;-78
2022/02/07 02:03:08;;;;;;;12.00;4.57;;;;;;;3.22;50.39;99662.55;124973;1105;104239;-79
2022/02/07 02:05:47;;;;;;;10.37;4.67;;;;;;;3.22;49.78;99690.19;125006;1105;104152;-78
2022/02/07 02:08:23;;;;;;;11.77;3.93;;;;;;;3.22;50.49;99692.78;125015;1105;104341;-78
2022/02/07 02:10:59;;;;;;;11.13;4.57;;;;;;;3.22;49.88;99670.33;125020;1105;104204;-78
2022/02/07 02:13:50;;;;;;;8.63;4.33;;;;;;;3.22;50.33;99649.59;124938;1105;104533;-78
2022/02/07 02:16:28;;;;;;;9.93;4.33;;;;;;;3.20;50.39;99643.45;124979;1105;104392;-78
2022/02/07 02:19:31;;;;;;;9.20;4.40;;;;;;;3.19;49.85;99641.66;125010;1105;104152;-78
2022/02/07 02:36:36;;;;;;;13.30;4.80;;;;;;;3.14;49.87;99596.47;125058;1102;109214;-78
2022/02/07 02:47:39;;;;;;;19.37;5.63;;;;;;;3.06;50.07;99575.34;125282;1102;104296;-78
2022/02/07 02:50:29;;;;;;;15.83;5.67;;;;;;;3.03;50.21;99575.18;124999;1102;104611;-78
2022/02/07 02:53:03;;;;;;;20.80;5.37;;;;;;;3.01;50.46;99573.34;124979;1105;104265;-78
2022/02/07 02:55:37;;;;;;;8.47;4.30;;;;;;;2.98;50.25;99555.92;124977;1105;104416;-78
2022/02/07 02:58:11;;;;;;;13.00;4.80;;;;;;;2.96;50.31;99557.56;125003;1105;104331;-78
2022/02/07 03:00:44;;;;;;;12.55;4.55;;;;;;;2.95;50.25;99552.30;125006;1105;104162;-79
2022/02/07 03:03:24;;;;;;;10.77;4.90;;;;;;;2.94;50.15;99564.34;125025;1105;104299;-77
2022/02/07 03:05:56;;;;;;;15.50;5.23;;;;;;;2.94;50.21;99545.33;124946;1105;104396;-79
2022/02/07 03:08:27;;;;;;;13.23;4.80;;;;;;;2.92;50.30;99536.59;125041;1102;104185;-79
2022/02/07 03:11:03;;;;;;;11.93;5.17;;;;;;;2.89;50.30;99532.14;125021;1105;104333;-79
2022/02/07 03:13:50;;;;;;;10.80;4.93;;;;;;;2.87;49.90;99536.36;124966;1105;104621;-78
2022/02/07 03:16:39;;;;;;;13.60;5.50;;;;;;;2.85;50.15;99525.00;124968;1105;104271;-79
2022/02/07 03:19:18;;;;;;;12.80;5.37;;;;;;;2.82;50.01;99523.17;125003;1105;104695;-79
2022/02/07 03:21:52;;;;;;;13.30;4.83;;;;;;;2.79;50.17;99529.88;125002;1105;104165;-79
2022/02/07 03:24:23;;;;;;;12.13;5.10;;;;;;;2.77;49.84;99511.66;124990;1105;104274;-79
2022/02/07 03:27:24;;;;;;;12.83;5.20;;;;;;;2.76;50.41;99507.31;124899;1105;104338;-78
2022/02/07 03:29:59;;;;;;;14.20;5.37;;;;;;;2.74;50.19;99508.03;125027;1105;104411;-77
2022/02/07 03:32:39;;;;;;;15.23;5.87;;;;;;;2.71;50.47;99495.80;125036;1106;104165;-77
2022/02/07 03:35:19;;;;;;;14.47;5.40;;;;;;;2.69;50.23;99497.44;125221;1102;104185;-78
2022/02/07 03:37:51;;;;;;;18.07;6.20;;;;;;;2.69;50.17;99502.62;125022;1102;104290;-78
2022/02/07 03:40:23;;;;;;;13.67;5.10;;;;;;;2.68;50.90;99490.47;125018;1102;104248;-78
2022/02/07 03:42:55;;;;;;;13.57;5.60;;;;;;;2.67;50.69;99483.53;125045;1102;104357;-78
2022/02/07 03:45:26;;;;;;;14.27;5.60;;;;;;;2.67;50.62;99478.34;125290;1102;104152;-78
2022/02/07 03:48:02;;;;;;;14.43;5.83;;;;;;;2.65;50.69;99469.59;125205;1102;119041;-78
2022/02/07 03:50:39;;;;;;;16.17;6.43;;;;;;;2.63;51.07;99471.22;125172;1102;104223;-78
2022/02/07 03:53:11;;;;;;;17.57;6.27;;;;;;;2.61;50.91;99457.31;125213;1100;104576;-78
2022/02/07 03:55:58;;;;;;;15.57;6.57;;;;;;;2.59;50.84;99465.01;125178;1102;104207;-78
2022/02/07 03:58:33;;;;;;;20.97;7.03;;;;;;;2.57;50.97;99469.23;125100;1102;104161;-78
2022/02/07 04:01:06;;;;;;;16.33;6.70;;;;;;;2.54;50.83;99474.25;125114;1102;104208;-79
2022/02/07 04:03:50;;;;;;;16.17;6.70;;;;;;;2.54;50.46;99462.98;125081;1102;104184;-78
2022/02/07 04:06:23;;;;;;;22.33;7.13;;;;;;;2.53;50.79;99446.56;125094;1102;104182;-78
2022/02/07 04:09:25;;;;;;;18.97;7.30;;;;;;;2.54;50.95;99447.45;125095;1102;104207;-78
2022/02/07 04:12:03;;;;;;;18.83;7.17;;;;;;;2.54;50.75;99450.95;125220;1102;104163;-78
2022/02/07 04:14:41;;;;;;;17.30;6.90;;;;;;;2.56;51.23;99449.31;125347;1102;104290;-79
2022/02/07 04:17:22;;;;;;;19.77;7.47;;;;;;;2.58;50.98;99447.68;125141;1102;104146;-78
2022/02/07 04:19:59;;;;;;;19.10;7.23;;;;;;;2.62;51.38;99443.56;125268;1100;104018;-78
2022/02/07 04:22:35;;;;;;;15.60;7.00;;;;;;;2.63;50.93;99450.50;125287;1102;104261;-78
2022/02/07 04:25:23;;;;;;;17.37;7.53;;;;;;;2.63;51.46;99447.91;125191;1102;104255;-78
2022/02/07 04:28:02;;;;;;;19.70;7.63;;;;;;;2.63;51.43;99458.27;125248;1099;104143;-78
2022/02/07 04:30:36;;;;;;;21.95;8.05;;;;;;;2.64;51.09;99457.47;125248;1102;104223;-78
2022/02/07 04:33:08;;;;;;;20.65;8.10;;;;;;;2.65;51.43;99454.05;125220;1099;104147;-78
2022/02/07 04:35:39;;;;;;;20.23;8.20;;;;;;;2.65;51.44;99449.78;125193;1099;104171;-78
2022/02/07 04:38:14;;;;;;;24.70;9.10;;;;;;;2.68;50.57;99449.94;125185;1100;104219;-78
2022/02/07 04:40:49;;;;;;;21.33;8.40;;;;;;;2.68;51.26;99455.11;125019;1105;104185;-78
2022/02/07 04:43:20;;;;;;;21.30;8.73;;;;;;;2.69;51.01;99450.81;125012;1105;104416;-78
2022/02/07 04:46:03;;;;;;;27.97;8.77;;;;;;;2.69;51.27;99436.14;125042;1103;104159;-78
2022/02/07 04:57:44;;;;;;;22.23;8.43;;;;;;;2.71;51.38;99412.91;124637;1109;104194;-78
2022/02/07 05:00:40;;;;;;;20.55;9.15;;;;;;;2.73;50.97;99405.22;124727;1109;104166;-79
2022/02/07 05:03:18;;;;;;;24.93;9.03;;;;;;;2.73;51.28;99406.13;124748;1109;104347;-79
2022/02/07 05:14:17;;;;;;;24.20;9.40;;;;;;;2.75;52.02;99401.02;124941;1105;104198;-78
2022/02/07 05:16:52;;;;;;;21.90;8.67;;;;;;;2.77;51.28;99396.80;124860;1105;104165;-78
2022/02/07 05:19:55;;;;;;;23.40;8.50;;;;;;;2.77;51.09;99392.48;124879;1105;104165;-79
2022/02/07 05:23:02;;;;;;;30.50;9.80;;;;;;;2.78;51.60;99372.67;124570;1108;104845;-77
2022/02/07 05:25:54;;;;;;;22.43;9.03;;;;;;;2.78;51.35;99373.55;124939;1102;104412;-78
2022/02/07 05:28:45;;;;;;;24.97;8.70;;;;;;;2.80;51.34;99379.69;125204;1099;104669;-78
2022/02/07 05:31:41;;;;;;;24.97;9.67;;;;;;;2.83;51.27;99385.02;125317;1099;104187;-79
2022/02/07 05:34:43;;;;;;;24.27;9.10;;;;;;;2.86;51.54;99381.70;125059;1102;104453;-78
2022/02/07 05:37:34;;;;;;;24.53;9.57;;;;;;;2.90;51.29;99372.36;125272;1099;104298;-79
2022/02/07 05:40:36;;;;;;;23.90;9.53;;;;;;;2.93;51.33;99360.45;125042;1102;107829;-79
2022/02/07 05:43:31;;;;;;;25.43;9.97;;;;;;;2.96;51.68;99370.97;125043;1102;104214;-79
2022/02/07 05:46:17;;;;;;;28.07;10.70;;;;;;;2.99;51.61;99372.80;125280;1099;104024;-79
2022/02/07 05:49:13;;;;;;;26.00;10.57;;;;;;;2.98;51.92;99366.73;125224;1100;104319;-79
2022/02/07 05:52:06;;;;;;;26.73;10.83;;;;;;;3.00;51.85;99364.22;125240;1099;105009;-79
2022/02/07 05:54:58;;;;;;;23.73;9.93;;;;;;;3.04;51.54;99366.16;125175;1099;104251;-79
2022/02/07 05:57:55;;;;;;;23.33;10.73;;;;;;;3.06;51.48;99367.11;125138;1099;104644;-79
2022/02/07 06:00:46;;;;;;;25.90;10.83;;;;;;;3.10;51.74;99365.53;125176;1098;104189;-79
2022/02/07 06:03:18;;;;;;;25.07;10.67;;;;;;;3.12;51.94;99372.58;125190;1099;104149;-79
2022/02/07 06:05:59;;;;;;;25.40;10.47;;;;;;;3.16;51.94;99358.05;125283;1099;104239;-79
2022/02/07 06:08:32;;;;;;;23.30;9.83;;;;;;;3.20;51.31;99352.20;125127;1102;104333;-78
2022/02/07 06:11:07;;;;;;;27.93;10.37;;;;;;;3.23;52.10;99345.44;125273;1099;104169;-78
2022/02/07 06:13:43;;;;;;;24.67;9.37;;;;;;;3.27;51.27;99346.46;125118;1102;104272;-78
2022/02/07 06:16:17;;;;;;;23.77;10.13;;;;;;;3.32;52.24;99344.08;125137;1102;104172;-78
2022/02/07 06:18:53;;;;;;;23.87;9.83;;;;;;;3.35;51.74;99333.85;125127;1099;104350;-78
2022/02/07 06:21:32;;;;;;;27.43;9.10;;;;;;;3.37;51.44;99316.68;125021;1102;108089;-78
2022/02/07 06:24:04;;;;;;;28.47;9.87;;;;;;;3.41;51.15;99315.98;125235;1102;104328;-78
2022/02/07 06:26:40;;;;;;;26.80;10.10;;;;;;;3.45;51.46;99323.09;125257;1102;104191;-77
2022/02/07 06:29:17;;;;;;;23.03;9.60;;;;;;;3.48;51.92;99318.05;125153;1102;104178;-78
2022/02/07 06:31:57;;;;;;;25.83;9.70;;;;;;;3.52;51.11;99314.78;125070;1102;104211;-78
2022/02/07 06:34:32;;;;;;;27.00;9.65;;;;;;;3.58;51.91;99319.33;125026;1102;104351;-78
2022/02/07 06:37:07;;;;;;;27.55;10.45;;;;;;;3.64;50.72;99313.54;125141;1102;104159;-78
2022/02/07 06:39:44;;;;;;;28.63;10.63;;;;;;;3.70;51.17;99313.81;125173;1102;104217;-78
2022/02/07 06:42:18;;;;;;;22.73;9.55;;;;;;;3.74;50.74;99305.32;125060;1102;104140;-78
2022/02/07 06:44:53;;;;;;;26.57;10.37;;;;;;;3.78;51.10;99305.52;125015;1102;104226;-78
2022/02/07 06:47:38;;;;;;;24.67;9.83;;;;;;;3.83;51.77;99302.25;125104;1102;104348;-79
2022/02/07 06:50:16;;;;;;;25.67;9.83;;;;;;;3.87;51.66;99307.64;125014;1102;104297;-78
2022/02/07 06:52:50;;;;;;;24.77;9.67;;;;;;;3.91;50.66;99304.37;125179;1102;104242;-79
2022/02/07 06:55:24;;;;;;;23.53;9.60;;;;;;;3.93;51.11;99315.70;125184;1102;104417;-79
2022/02/07 06:58:04;;;;;;;25.90;9.77;;;;;;;3.98;50.87;99310.70;125050;1102;104192;-79
2022/02/07 07:00:40;;;;;;;25.90;9.90;;;;;;;4.03;50.91;99301.39;125174;1102;104309;-78
2022/02/07 07:03:16;;;;;;;25.37;10.23;;;;;;;4.08;51.41;99297.30;124983;1102;104281;-78
2022/02/07 07:05:51;;;;;;;29.63;10.33;;;;;;;4.13;51.26;99287.98;124851;1102;104258;-80
2022/02/07 07:08:28;;;;;;;25.97;9.80;;;;;;;4.18;50.86;99285.59;125198;1102;102241;-81
2022/02/07 07:11:20;;;;;;;23.37;10.00;;;;;;;4.23;50.41;99285.77;125059;1103;104470;-80
2022/02/07 07:14:02;;;;;;;24.37;9.40;;;;;;;4.28;51.36;99279.05;125056;1102;104150;-79
2022/02/07 07:16:50;;;;;;;23.33;9.80;;;;;;;4.34;51.14;99286.22;125127;1102;104252;-78
2022/02/07 07:19:38;;;;;;;24.73;10.20;;;;;;;4.39;51.13;99292.48;125132;1102;104204;-80
2022/02/07 07:22:20;;;;;;;27.10;9.97;;;;;;;4.46;50.29;99295.39;125094;1101;104191;-78
2022/02/07 07:24:55;;;;;;;25.50;9.80;;;;;;;4.53;50.32;99288.72;125111;1102;104159;-78
2022/02/07 07:27:37;;;;;;;24.93;8.90;;;;;;;4.58;50.46;99292.41;125190;1099;104185;-78
2022/02/07 07:30:16;;;;;;;26.80;10.40;;;;;;;4.63;50.57;99292.60;125067;1099;104243;-78
2022/02/07 07:33:13;;;;;;;23.57;10.20;;;;;;;4.71;50.75;99283.39;124926;1102;110027;-79
2022/02/07 07:36:08;;;;;;;23.37;9.23;;;;;;;4.76;49.65;99278.38;124989;1099;104397;-79
2022/02/07 07:38:55;;;;;;;21.97;9.03;;;;;;;4.87;50.07;99256.28;125064;1099;102444;-79
2022/02/07 07:41:35;;;;;;;23.30;9.28;;;;;;;4.96;49.47;99253.16;124960;1099;104208;-79
2022/02/07 07:44:30;;;;;;;24.77;9.70;;;;;;;5.07;49.76;99259.64;124923;1099;104149;-80
2022/02/07 07:47:26;;;;;;;26.67;9.97;;;;;;;5.16;49.90;99249.58;124965;1099;104248;-79
2022/02/07 07:50:19;;;;;;;22.43;8.77;;;;;;;5.29;49.04;99243.11;125095;1099;104184;-79
2022/02/07 07:53:25;;;;;;;22.40;8.85;;;;;;;5.33;48.68;99241.49;124906;1099;104188;-78
2022/02/07 08:02:00;;;;;;;22.93;8.93;;;;;;;5.57;49.42;99233.70;125051;1102;104226;-79
2022/02/07 08:04:40;;;;;;;21.53;8.40;;;;;;;5.63;48.79;99225.23;124842;1102;104347;-78
2022/02/07 08:07:37;;;;;;;22.17;8.77;;;;;;;5.69;49.28;99221.12;125112;1102;104288;-78
2022/02/07 08:10:29;;;;;;;22.47;9.20;;;;;;;5.76;49.42;99230.02;125050;1102;104488;-79
2022/02/07 08:13:15;;;;;;;22.63;8.97;;;;;;;5.77;48.02;99221.38;125095;1102;105406;-79
2022/02/07 08:15:50;;;;;;;23.47;9.57;;;;;;;5.79;48.85;99216.23;125068;1102;104345;-79
2022/02/07 08:18:29;;;;;;;24.23;9.30;;;;;;;5.82;48.94;99209.40;125136;1102;104246;-79
2022/02/07 08:21:08;;;;;;;20.27;8.50;;;;;;;5.85;48.25;99198.22;125257;1102;104841;-79
2022/02/07 08:23:59;;;;;;;28.27;8.90;;;;;;;5.83;48.24;99197.25;124715;1102;104335;-79
2022/02/07 08:26:43;;;;;;;25.73;8.87;;;;;;;5.82;47.68;99200.72;124991;1102;104174;-79
2022/02/07 08:29:27;;;;;;;20.87;7.50;;;;;;;5.82;47.64;99182.49;125056;1102;104236;-77
2022/02/07 08:32:06;;;;;;;19.90;8.13;;;;;;;5.79;47.36;99188.47;124866;1102;104844;-80
2022/02/07 08:34:43;;;;;;;;;;;;;;;5.72;45.24;99182.18;125197;1102;104306;-79
2022/02/07 08:37:15;;;;;;;22.70;8.40;;;;;;;5.81;47.06;99191.13;125212;1102;104155;-78
2022/02/07 08:39:53;;;;;;;20.25;7.90;;;;;;;5.90;47.74;99192.31;125166;1102;104303;-78
2022/02/07 08:42:34;;;;;;;20.13;8.00;;;;;;;6.02;47.56;99189.27;124864;1102;104153;-78
2022/02/07 08:45:10;;;;;;;19.23;7.73;;;;;;;6.13;47.45;99191.36;124807;1102;104229;-78
2022/02/07 08:47:43;;;;;;;26.00;8.10;;;;;;;6.21;47.80;99180.33;124771;1102;104185;-78
2022/02/07 08:50:20;;;;;;;25.17;8.38;;;;;;;6.26;47.25;99170.05;124796;1106;104184;-78
2022/02/07 08:52:58;;;;;;;19.77;7.90;;;;;;;6.30;46.04;99164.11;124747;1102;104309;-77
2022/02/07 08:55:34;;;;;;;21.40;9.00;;;;;;;6.30;47.22;99144.14;124821;1102;104213;-78
2022/02/07 08:58:11;;;;;;;22.35;9.10;;;;;;;6.39;47.13;99137.44;124749;1105;104258;-78
2022/02/07 09:00:50;;;;;;;23.03;9.20;;;;;;;6.47;47.04;99143.80;124799;1102;104415;-78
2022/02/07 09:03:41;;;;;;;20.23;8.63;;;;;;;6.61;46.82;99136.39;124894;1102;104264;-78
2022/02/07 09:06:31;;;;;;;18.40;7.90;;;;;;;6.66;46.94;99126.97;124963;1102;104169;-78
2022/02/07 09:09:16;;;;;;;19.80;8.53;;;;;;;6.92;47.53;99139.86;125043;1099;104188;-78
2022/02/07 09:11:50;;;;;;;23.53;9.20;;;;;;;7.12;47.21;99143.03;125136;1099;104149;-78
2022/02/07 09:14:56;;;;;;;21.70;8.63;;;;;;;7.30;47.41;99137.45;125019;1102;104189;-79
2022/02/07 09:17:33;;;;;;;23.67;9.57;;;;;;;7.55;47.00;99129.41;125288;1099;104704;-79
2022/02/07 09:20:15;;;;;;;25.43;8.90;;;;;;;7.74;47.10;99119.43;125893;1099;104232;-79
2022/02/07 09:22:48;;;;;;;23.43;8.83;;;;;;;7.89;46.44;99116.33;125016;1099;104275;-79
2022/02/07 09:25:34;;;;;;;20.83;8.23;;;;;;;8.04;46.55;99118.40;124913;1099;104185;-78
2022/02/07 09:28:07;;;;;;;22.00;8.27;;;;;;;8.16;46.14;99120.44;124957;1102;102502;-78
2022/02/07 09:30:50;;;;;;;20.97;9.37;;;;;;;8.27;46.53;99119.84;125026;1099;104143;-79
2022/02/07 09:33:32;;;;;;;22.13;8.83;;;;;;;8.42;46.69;99118.41;125024;1102;104246;-80
2022/02/07 09:36:09;;;;;;;20.20;8.75;;;;;;;8.57;46.40;99107.42;125145;1102;104259;-80
2022/02/07 09:38:45;;;;;;;30.83;8.53;;;;;;;8.70;46.36;99101.61;125047;1102;104232;-79
2022/02/07 09:41:22;;;;;;;20.33;8.27;;;;;;;8.78;45.82;99092.19;125697;1099;104778;-79
2022/02/07 09:43:58;;;;;;;16.80;8.03;;;;;;;8.82;45.27;99085.30;125532;1099;104178;-79
2022/02/07 09:46:43;;;;;;;19.60;7.83;;;;;;;8.84;45.85;99078.36;125051;1102;104659;-78
2022/02/07 09:49:19;;;;;;;20.97;8.17;;;;;;;8.89;45.89;99068.86;125087;1099;104368;-78
2022/02/07 09:52:11;;;;;;;21.93;8.20;;;;;;;8.89;45.64;99071.47;125145;1102;104209;-78
2022/02/07 09:54:50;;;;;;;19.53;8.30;;;;;;;8.85;44.97;99069.67;125038;1102;104287;-78
2022/02/07 09:57:23;;;;;;;18.10;7.40;;;;;;;8.81;44.11;99062.60;125074;1100;104351;-77
2022/02/07 10:00:06;;;;;;;;;;;;;;;8.73;43.47;99056.34;125198;1099;101799;-79
2022/02/07 10:02:46;;;;;;;16.40;7.77;;;;;;;8.76;44.38;99064.25;125218;1099;104287;-78
2022/02/07 10:05:26;;;;;;;23.27;7.97;;;;;;;8.77;43.81;99066.00;125121;1099;104158;-78
2022/02/07 10:08:06;;;;;;;18.80;7.80;;;;;;;8.80;45.27;99076.52;125114;1099;104268;-80
2022/02/07 10:10:56;;;;;;;22.23;7.70;;;;;;;8.85;45.26;99071.37;125076;1099;104184;-79
2022/02/07 10:13:42;;;;;;;24.73;10.37;;;;;;;8.89;44.79;99066.23;125179;1099;104174;-78
2022/02/07 10:19:29;;;;;;;21.80;8.30;;;;;;;9.01;44.59;99042.06;125054;1099;104290;-77
2022/02/07 10:22:51;;;;;;;20.33;8.00;;;;;;;9.08;44.90;99040.42;124917;1102;104309;-77
2022/02/07 10:40:33;;;;;;;22.33;8.20;;;;;;;9.24;44.42;99021.55;124982;1099;104173;-78
2022/02/07 10:43:28;;;;;;;17.13;7.73;;;;;;;9.33;44.60;99020.80;124996;1098;104191;-79
2022/02/07 10:46:21;;;;;;;16.67;7.10;;;;;;;9.39;43.77;99013.05;124992;1099;104303;-79
2022/02/07 10:48:58;;;;;;;17.23;7.00;;;;;;;9.48;44.34;99009.71;124960;1102;104150;-79
2022/02/07 10:51:37;;;;;;;19.07;7.13;;;;;;;9.53;44.07;99013.27;124952;1102;104429;-78
2022/02/07 10:54:19;;;;;;;21.23;7.37;;;;;;;9.58;43.45;99005.49;124861;1099;104271;-78
2022/02/07 10:57:06;;;;;;;19.20;7.47;;;;;;;9.63;43.59;98994.24;124919;1099;104297;-77
2022/02/07 10:59:40;;;;;;;15.77;5.90;;;;;;;9.71;43.36;98984.75;124884;1102;104187;-78
2022/02/07 11:05:29;;;;;;;18.40;6.33;;;;;;;9.74;43.42;98989.17;124843;1099;104137;-77
2022/02/07 11:08:20;;;;;;;15.00;5.93;;;;;;;9.69;43.09;98983.86;124865;1102;107035;-77
2022/02/07 11:11:14;;;;;;;14.90;6.17;;;;;;;9.65;43.05;98981.17;124958;1099;104287;-78
2022/02/07 11:14:08;;;;;;;18.47;7.10;;;;;;;9.63;42.26;98961.91;125004;1099;104230;-77
2022/02/07 11:17:00;;;;;;;16.20;7.40;;;;;;;9.64;43.28;98961.06;124956;1099;104240;-78
2022/02/07 11:19:54;;;;;;;17.60;6.77;;;;;;;9.68;42.92;98955.03;124882;1099;104185;-78
2022/02/07 11:23:07;;;;;;;20.80;7.43;;;;;;;9.74;43.65;98952.50;124904;1099;104182;-79
2022/02/07 11:26:03;;;;;;;18.43;7.60;;;;;;;9.81;43.70;98941.22;125004;1099;104256;-78
2022/02/07 11:28:44;;;;;;;20.90;7.70;;;;;;;9.84;42.96;98937.78;125660;1099;110010;-78
2022/02/07 11:31:29;;;;;;;18.40;7.70;;;;;;;9.89;43.50;98941.33;125751;1099;102629;-79
2022/02/07 11:34:15;;;;;;;22.27;8.10;;;;;;;9.93;43.50;98943.14;124934;1102;104351;-79
2022/02/07 11:36:55;;;;;;;22.07;7.33;;;;;;;10.00;43.53;98947.62;124978;1099;104267;-78
2022/02/07 11:39:44;;;;;;;19.40;7.93;;;;;;;10.04;43.25;98936.30;125001;1100;104245;-79
2022/02/07 11:42:18;;;;;;;24.77;8.47;;;;;;;10.11;43.43;98934.63;125170;1099;104731;-79
2022/02/07 11:45:20;;;;;;;28.67;8.43;;;;;;;10.16;43.12;98934.67;125024;1099;104242;-79
2022/02/07 11:48:14;;;;;;;24.30;8.63;;;;;;;10.21;43.28;98935.64;125574;1099;104191;-79
2022/02/07 11:50:48;;;;;;;21.03;7.87;;;;;;;10.23;42.78;98933.91;126150;1099;104280;-79
2022/02/07 11:53:26;;;;;;;29.30;9.57;;;;;;;10.26;43.32;98926.08;126167;1099;104303;-78
2022/02/07 11:56:08;;;;;;;18.87;8.07;;;;;;;10.26;42.08;98928.70;126213;1099;104177;-79
2022/02/07 11:58:52;;;;;;;20.57;8.07;;;;;;;10.24;42.81;98925.19;125417;1099;104156;-78
2022/02/07 12:02:17;;;;;;;19.87;7.97;;;;;;;10.25;43.30;98927.83;125201;1102;104178;-78
2022/02/07 12:04:58;;;;;;;19.90;8.33;;;;;;;10.26;42.94;98931.32;125171;1102;104367;-79
2022/02/07 12:07:37;;;;;;;20.57;7.60;;;;;;;10.29;42.94;98939.22;125278;1099;104208;-79
2022/02/07 12:13:42;;;;;;;31.43;8.40;;;;;;;10.31;42.99;98937.48;125267;1099;104149;-81
2022/02/07 12:16:23;;;;;;;22.47;8.33;;;;;;;10.31;42.71;98940.11;125794;1099;104166;-79
2022/02/07 12:19:11;;;;;;;25.10;8.50;;;;;;;10.34;42.87;98940.17;124968;1102;104367;-78
2022/02/07 12:21:55;;;;;;;25.90;9.13;;;;;;;10.39;42.95;98940.23;125055;1103;104881;-79
2022/02/07 12:25:03;;;;;;;27.00;8.93;;;;;;;10.44;42.76;98935.94;124997;1099;104277;-79
2022/02/07 12:27:50;;;;;;;21.80;8.50;;;;;;;10.49;43.09;98935.99;125164;1099;104392;-78
2022/02/07 12:30:42;;;;;;;24.47;8.63;;;;;;;10.53;42.77;98922.03;125092;1099;104307;-79
2022/02/07 12:33:19;;;;;;;22.47;8.53;;;;;;;10.59;43.18;98928.20;125064;1099;104307;-80
2022/02/07 12:36:02;;;;;;;21.10;8.40;;;;;;;10.62;43.29;98929.99;125221;1099;104335;-79
2022/02/07 12:38:36;;;;;;;16.97;7.23;;;;;;;10.64;42.63;98927.39;125452;1099;104265;-80
2022/02/07 12:41:13;;;;;;;22.37;8.90;;;;;;;10.64;42.99;98915.14;125003;1099;104249;-80
2022/02/07 12:43:54;;;;;;;23.27;8.40;;;;;;;10.66;42.95;98918.68;126123;1099;104249;-79
2022/02/07 12:46:30;;;;;;;18.73;7.90;;;;;;;10.67;42.81;98920.42;126104;1099;104217;-80
2022/02/07 12:49:14;;;;;;;19.95;8.00;;;;;;;10.68;42.84;98929.19;126013;1099;104143;-79
2022/02/07 12:51:51;;;;;;;18.67;7.73;;;;;;;10.69;42.83;98917.81;125842;1099;104204;-79
2022/02/07 12:54:39;;;;;;;18.87;7.10;;;;;;;10.70;42.55;98915.20;125934;1099;104159;-80
2022/02/07 12:57:18;;;;;;;23.73;8.00;;;;;;;10.72;42.63;98918.73;125916;1099;104305;-79
2022/02/07 12:59:58;;;;;;;18.57;7.37;;;;;;;10.69;42.72;98913.47;125245;1099;104200;-78
2022/02/07 13:02:36;;;;;;;17.93;7.50;;;;;;;10.69;42.97;98912.56;126062;1099;104217;-79
2022/02/07 13:05:16;;;;;;;32.77;10.37;;;;;;;10.69;42.96;98920.44;125896;1100;104252;-80
2022/02/07 13:07:57;;;;;;;33.43;13.50;;;;;;;10.69;43.23;98934.45;125904;1099;104287;-79
2022/02/07 13:10:37;;;;;;;28.27;10.53;;;;;;;10.71;43.30;98922.22;125915;1098;104252;-79
2022/02/07 13:13:28;;;;;;;28.97;9.57;;;;;;;10.71;42.65;98924.84;126132;1099;104229;-79
2022/02/07 13:16:16;;;;;;;25.63;7.80;;;;;;;10.72;42.99;98929.23;125998;1099;104291;-80
2022/02/07 13:19:09;;;;;;;32.90;8.80;;;;;;;10.71;43.01;98921.34;126092;1099;104242;-80
2022/02/07 13:21:48;;;;;;;18.67;7.07;;;;;;;10.68;42.56;98916.94;126040;1099;104184;-79
2022/02/07 13:24:30;;;;;;;19.57;7.17;;;;;;;10.66;43.01;98917.78;125252;1099;104340;-81
2022/02/07 13:27:15;;;;;;;22.07;7.33;;;;;;;10.65;43.00;98916.91;125976;1099;104179;-79
2022/02/07 13:29:57;;;;;;;22.80;7.20;;;;;;;10.64;43.26;98917.77;125919;1099;104599;-80
2022/02/07 13:32:35;;;;;;;21.10;7.63;;;;;;;10.63;42.69;98916.03;125904;1099;104309;-81
2022/02/07 13:35:11;;;;;;;18.30;7.70;;;;;;;10.60;43.12;98911.62;125966;1099;104233;-80
2022/02/07 13:37:48;;;;;;;18.50;7.23;;;;;;;10.57;42.73;98918.59;125910;1099;104277;-80
2022/02/07 13:40:25;;;;;;;18.37;6.77;;;;;;;10.53;43.15;98922.03;126108;1099;104150;-81
2022/02/07 13:43:03;;;;;;;17.07;6.87;;;;;;;10.49;43.19;98912.39;126017;1099;104327;-81
2022/02/07 13:45:53;;;;;;;17.60;8.30;;;;;;;10.45;43.09;98916.70;125848;1099;102144;-81
2022/02/07 13:48:41;;;;;;;21.03;7.20;;;;;;;10.40;42.50;98907.91;125739;1099;104136;-80
2022/02/07 13:51:16;;;;;;;22.90;7.75;;;;;;;10.36;42.96;98908.73;125866;1099;104171;-80
2022/02/07 13:53:50;;;;;;;20.57;7.83;;;;;;;10.32;42.67;98914.79;125825;1099;104222;-79
2022/02/07 14:00:00;;;;;;;18.17;7.10;;;;;;;10.23;43.18;98921.66;125769;1099;104337;-83
2022/02/07 14:03:06;;;;;;;17.37;7.17;;;;;;;10.18;42.68;98917.25;125940;1099;104146;-80
2022/02/07 14:05:48;;;;;;;20.63;7.63;;;;;;;10.13;42.73;98908.42;126122;1099;104666;-81
2022/02/07 14:09:02;;;;;;;18.50;7.33;;;;;;;10.06;43.26;98910.98;126093;1099;104137;-80